Woodland, Iowa
Current Conditions -  °F | °C
As of 1:53 AM on Monday 24 Nov 2014 (Local Time) from KLWD Reporting Station
Overcast Overcast  
Wind Chill: 19°   Ceiling: 2500
Heat Index: 32°   Visibility: 10mi
Dew Point: 26°   Wind: 24mph
Humidity: 79%   Direction: 310°NW
Pressure: 29.41"   Gusts: 35mph
Location:  40.7175°N, 93.6143°W
Report Text: KLWD 240753Z AUTO 31021G30KT 10SM OVC025 00/M03 A2941 RMK AO2 PK WND 33040/0729 SLP965 T00001033
Loading
Personal Weather Stations






























Interactive Weather Map New forecast layout! Learn more

10-Day Weather Forecast

Advertisements
Track Severe Weather on mobile